!!! Benutzen Sie für Ihre Flugvorbereitung die offiziellen Quellen !!!

Metar:

EDQM 171720Z 21006KT CAVOK 07/M01 Q1023

QNH: 1023
Temperatur: 7
Dew Point : -1

 

METAR (decoded)